Detall de PIREP

Printer-friendly versionPDF version

[2013/03/27 19:48:00]
Flight IATA:CT1004
Pilot Number:026
Company ICAO:CAT
Aircraft Type:DC85/A
PAX:132
Aircraft Registration:PAX
Departing Airport: LIEA
Destination Airport: LOWI
Alternate Airport:LOWS
Online: VATSIM
Route:MINKA UL5 VALMA UL865 BOL UZ806 VERUN UM726 BRENO
Flight Level:F340
No Slew and time accel
No pause
Crash detect
Detect pilot in Cockpit between each 30 and 45 minutes
19:48 Zero fuel Weight: 178479 Lbs, Fuel Weight: 30002 Lbs
19:48 VATSIM:LIEA 271920Z VRB01KT 9999 FEW005 BKN014 12/11 Q1007
19:48 VATSIM:LOWI 271920Z 09004KT 9999 FEW030 00/M03 Q1007 R08/19//76 NOSIG
19:49 VOICE CATALONIAN / EASTER CHARTER
19:55 Parking Brakes off
20:01 Take-off
20:01 Take off Weight: 207392 Lbs
20:01 Wind: 297º @ 001 Knots Heading: 021º
20:01 POS N40º 38´ 15´´ E008º 17´ 39´´
20:01 Flaps:2 at 175 Knots
20:01 Gear Up: 178 Knots
20:03 Flaps:1 at 183 Knots
20:05 Flaps:0 at 186 Knots
20:16 Wind:065º@000 Knots Heading: 069º Ground Speed: 299 Knots Altitude 31794 ft
20:17 TOC
20:17 Fuel Weight: 24471 Lb
20:24 TOD
20:24 Fuel Weight: 22946 Lb
20:25 TOC
20:25 Fuel Weight: 22773 Lb
20:31 Wind:184º@017 Knots Heading: 013º Ground Speed: 494 Knots Altitude 33818 ft
20:46 Wind:163º@005 Knots Heading: 347º Ground Speed: 475 Knots Altitude 33864 ft
21:01 Wind:098º@009 Knots Heading: 353º Ground Speed: 472 Knots Altitude 33877 ft
21:02 TOD
21:02 Fuel Weight: 14594 Lb
21:16 Wind:081º@009 Knots Heading: 064º Ground Speed: 296 Knots Altitude 13795 ft
21:25 Flaps:1 at 221 Knots
21:27 Gear Down: 218 Knots
21:27 Flaps:2 at 176 Knots
21:28 Flaps:3 at 155 Knots
21:29 Flaps:4 at 163 Knots
21:29 Flaps:5 at 145 Knots
21:30 TouchDown:Rate -99 ft/min Speed: 123 Knots
21:30 VATSIM:LOWI 272050Z VRB01KT 9999 FEW030 M01/M03 Q1008 R08/19//76 NOSIG
21:30 Land
21:30 Wind:093º@003 Knots
21:30 Heading: 260º
21:30 Flight Duration: 01:29
21:30 Landing Weight: 189955 Lbs
21:30 POS N47º 15´ 35´´ E011º 20´ 23´´
21:34 Parking brakes on
21:34 Block to Block Duration: 01:39
21:34 Final Fuel: 11106 Lbls
21:34 Spent Fuel: 18895 Lbls
21:34 Flight Length: 574 NM
21:34 TOD Land Length: 153 NM

Exportar CSV

Powered by Drupal - Modified by Danger4k